createdAt,value
2023-05-02T00:02:31.597Z,69.01
2023-05-02T00:05:35.116Z,68.84
2023-05-02T00:08:38.100Z,68.89
2023-05-02T00:11:40.810Z,69.24
2023-05-02T00:14:43.631Z,69.30
2023-05-02T00:17:46.269Z,69.20
2023-05-02T00:20:49.128Z,69.65
2023-05-02T00:23:52.297Z,69.79
2023-05-02T00:26:55.136Z,69.90
2023-05-02T00:29:58.984Z,69.44
2023-05-02T00:33:02.110Z,69.07
2023-05-02T00:36:04.951Z,69.97
2023-05-02T00:39:08.080Z,69.88
2023-05-02T00:42:11.380Z,69.60
2023-05-02T00:45:14.222Z,69.22
2023-05-02T00:48:18.304Z,68.89
2023-05-02T00:51:21.108Z,69.34
2023-05-02T00:54:23.841Z,69.44
2023-05-02T00:57:26.715Z,69.43
2023-05-02T01:00:55.915Z,69.87
2023-05-02T01:04:11.457Z,69.91
2023-05-02T01:07:29.028Z,69.86
2023-05-02T01:10:53.512Z,69.90
2023-05-02T01:13:57.526Z,68.98
2023-05-02T01:17:04.912Z,68.99
2023-05-02T01:20:12.630Z,69.24
2023-05-02T01:23:29.482Z,69.91
2023-05-02T01:26:53.357Z,70.03
2023-05-02T01:29:58.391Z,69.33
2023-05-02T01:33:03.190Z,69.03
2023-05-02T01:36:06.737Z,69.00
2023-05-02T01:39:12.320Z,69.96
2023-05-02T01:42:15.741Z,70.12
2023-05-02T01:45:20.089Z,70.50
2023-05-02T01:48:23.799Z,70.96
2023-05-02T01:51:32.302Z,71.56
2023-05-02T01:54:35.720Z,71.75
2023-05-02T01:57:41.209Z,72.28
2023-05-02T02:00:46.019Z,71.85
2023-05-02T02:03:48.957Z,71.44
2023-05-02T02:06:56.400Z,71.06
2023-05-02T02:09:59.334Z,71.72
2023-05-02T02:13:08.406Z,71.48
2023-05-02T02:16:13.452Z,71.73
2023-05-02T02:19:16.285Z,71.63
2023-05-02T02:22:20.602Z,71.37
2023-05-02T02:25:23.820Z,71.26
2023-05-02T02:28:26.616Z,71.06
2023-05-02T02:31:36.011Z,70.71
2023-05-02T02:34:38.859Z,71.54
2023-05-02T02:37:49.411Z,71.60
2023-05-02T02:40:55.007Z,71.41
2023-05-02T02:44:01.876Z,71.80
2023-05-02T02:47:04.549Z,74.45
2023-05-02T02:50:41.834Z,72.29
2023-05-02T02:54:22.996Z,72.29
2023-05-02T02:57:41.686Z,71.75
2023-05-02T03:00:45.412Z,70.78
2023-05-02T03:03:49.449Z,71.16
2023-05-02T03:06:52.415Z,71.10
2023-05-02T03:09:55.418Z,71.02
2023-05-02T03:13:00.344Z,70.97
2023-05-02T03:16:40.784Z,72.13
2023-05-02T03:19:48.353Z,71.12
2023-05-02T03:22:51.329Z,71.17
2023-05-02T03:25:53.993Z,71.33
2023-05-02T03:29:00.108Z,70.60
2023-05-02T03:32:09.583Z,71.01
2023-05-02T03:35:14.089Z,70.99
2023-05-02T03:38:20.198Z,71.03
2023-05-02T03:41:27.928Z,70.82
2023-05-02T03:44:37.663Z,70.94
2023-05-02T03:47:40.962Z,71.41
2023-05-02T03:50:44.223Z,70.91
2023-05-02T03:53:47.327Z,70.71
2023-05-02T03:56:50.067Z,70.54
2023-05-02T04:00:01.230Z,70.59
2023-05-02T04:03:14.240Z,70.71
2023-05-02T04:06:20.273Z,69.90
2023-05-02T04:09:29.241Z,69.69
2023-05-02T04:12:37.765Z,68.78
2023-05-02T04:15:41.235Z,68.12
2023-05-02T04:18:44.676Z,68.28
2023-05-02T04:21:48.637Z,68.20
2023-05-02T04:24:52.160Z,68.79
2023-05-02T04:27:55.090Z,69.00
2023-05-02T04:31:00.030Z,68.77
2023-05-02T04:34:04.864Z,68.12
2023-05-02T04:37:13.020Z,67.60
2023-05-02T04:40:17.787Z,66.78
2023-05-02T04:43:24.560Z,66.11
2023-05-02T04:46:33.097Z,66.22
2023-05-02T04:49:36.170Z,65.89
2023-05-02T04:52:39.260Z,64.76
2023-05-02T04:55:45.416Z,65.44
2023-05-02T04:58:48.343Z,65.47
2023-05-02T05:01:51.457Z,65.45
2023-05-02T05:04:54.538Z,64.61
2023-05-02T05:07:57.342Z,66.54
2023-05-02T05:11:02.464Z,67.89
2023-05-02T05:14:06.075Z,67.37
2023-05-02T05:17:12.861Z,66.75
2023-05-02T05:20:16.250Z,66.17
2023-05-02T05:23:19.500Z,65.13
2023-05-02T05:26:22.662Z,62.48
2023-05-02T05:29:25.715Z,61.06
2023-05-02T05:32:30.360Z,60.57
2023-05-02T05:35:33.224Z,59.10
2023-05-02T05:38:38.079Z,59.22
2023-05-02T05:41:41.814Z,59.11
2023-05-02T05:44:46.871Z,59.60
2023-05-02T05:47:51.903Z,57.78
2023-05-02T05:50:55.124Z,55.77
2023-05-02T05:53:58.066Z,52.52
2023-05-02T05:57:01.338Z,52.79
2023-05-02T06:00:05.113Z,52.48
2023-05-02T06:03:18.292Z,52.41
2023-05-02T06:06:22.255Z,52.86
2023-05-02T06:09:25.116Z,51.66
2023-05-02T06:12:28.713Z,49.24
2023-05-02T06:15:34.380Z,49.33
2023-05-02T06:18:37.780Z,49.68
2023-05-02T06:21:40.660Z,49.46
2023-05-02T06:24:43.460Z,48.23
2023-05-02T06:27:46.295Z,47.85
2023-05-02T06:30:58.229Z,44.59
2023-05-02T06:34:00.964Z,47.99
2023-05-02T06:37:03.811Z,47.93
2023-05-02T06:40:07.826Z,48.56
2023-05-02T06:43:10.649Z,47.89
2023-05-02T06:46:13.413Z,46.63
2023-05-02T06:49:16.425Z,47.13
2023-05-02T06:52:19.365Z,44.95
2023-05-02T06:55:22.523Z,43.10
2023-05-02T06:58:25.456Z,46.71
2023-05-02T07:01:28.275Z,47.56
2023-05-02T07:04:31.690Z,46.97
2023-05-02T07:07:34.764Z,48.75
2023-05-02T07:10:37.818Z,46.90
2023-05-02T07:13:40.713Z,48.83
2023-05-02T07:16:43.584Z,49.77
2023-05-02T07:19:46.559Z,49.79
2023-05-02T07:22:49.432Z,49.62
2023-05-02T07:25:52.652Z,49.89
2023-05-02T07:28:55.710Z,48.75
2023-05-02T07:31:58.584Z,48.32
2023-05-02T07:35:02.163Z,47.80
2023-05-02T07:38:05.002Z,47.68
2023-05-02T07:41:08.208Z,48.96
2023-05-02T07:44:12.206Z,48.81
2023-05-02T07:47:15.177Z,51.17
2023-05-02T07:50:17.965Z,53.47
2023-05-02T07:53:20.873Z,51.76
2023-05-02T07:56:25.433Z,54.25
2023-05-02T07:59:28.210Z,54.44
2023-05-02T08:02:30.931Z,54.43
2023-05-02T08:05:33.929Z,55.32
2023-05-02T08:08:37.645Z,55.79
2023-05-02T08:11:40.533Z,54.99
2023-05-02T08:14:44.650Z,55.32
2023-05-02T08:17:47.718Z,55.98
2023-05-02T08:20:51.596Z,55.76
2023-05-02T08:23:58.907Z,55.47
2023-05-02T08:27:03.817Z,55.18
2023-05-02T08:30:10.194Z,56.13
2023-05-02T08:33:14.669Z,56.50
2023-05-02T08:36:25.057Z,56.90
2023-05-02T08:39:27.812Z,57.05
2023-05-02T08:42:34.069Z,55.41
2023-05-02T08:45:43.300Z,53.44
2023-05-02T08:48:50.129Z,53.67
2023-05-02T08:51:53.674Z,52.41
2023-05-02T08:54:58.823Z,53.22
2023-05-02T08:58:04.942Z,53.55
2023-05-02T09:01:23.325Z,53.67
2023-05-02T09:04:33.637Z,51.88
2023-05-02T09:07:52.945Z,52.43
2023-05-02T09:10:58.721Z,52.69
2023-05-02T09:14:04.711Z,53.18
2023-05-02T09:17:07.974Z,53.47
2023-05-02T09:20:16.189Z,52.88
2023-05-02T09:23:19.212Z,53.35
2023-05-02T09:26:22.952Z,52.98
2023-05-02T09:29:28.100Z,53.85
2023-05-02T09:32:49.089Z,52.87
2023-05-02T09:35:57.336Z,53.65
2023-05-02T09:39:13.901Z,53.46
2023-05-02T09:42:32.240Z,54.70
2023-05-02T09:45:35.846Z,54.23
2023-05-02T09:48:58.652Z,54.42
2023-05-02T09:52:15.680Z,54.05
2023-05-02T09:55:23.565Z,54.50
2023-05-02T09:58:26.838Z,54.54
2023-05-02T10:01:30.703Z,54.79
2023-05-02T10:04:34.923Z,54.83
2023-05-02T10:07:41.711Z,53.85
2023-05-02T10:10:59.056Z,54.06
2023-05-02T10:14:02.404Z,52.94
2023-05-02T10:17:30.533Z,52.37
2023-05-02T10:20:37.646Z,51.13
2023-05-02T10:23:45.968Z,51.87
2023-05-02T10:26:48.929Z,52.91
2023-05-02T10:29:52.361Z,52.61
2023-05-02T10:32:55.565Z,52.24
2023-05-02T10:35:59.068Z,53.09
2023-05-02T10:39:02.280Z,51.17
2023-05-02T10:42:05.145Z,51.86
2023-05-02T10:45:32.312Z,52.03
2023-05-02T10:48:37.448Z,52.23
2023-05-02T10:51:42.611Z,52.05
2023-05-02T10:54:45.734Z,51.58
2023-05-02T10:58:02.751Z,52.91
2023-05-02T11:01:27.587Z,51.02
2023-05-02T11:05:06.042Z,49.02
2023-05-02T11:08:22.985Z,49.01
2023-05-02T11:11:46.805Z,51.50
2023-05-02T11:14:50.085Z,50.16
2023-05-02T11:18:14.830Z,49.84
2023-05-02T11:21:31.619Z,49.38
2023-05-02T11:24:41.827Z,50.27
2023-05-02T11:27:46.606Z,50.88
2023-05-02T11:30:51.242Z,51.19
2023-05-02T11:34:04.257Z,51.34
2023-05-02T11:37:14.885Z,50.06
2023-05-02T11:40:18.028Z,50.25
2023-05-02T11:43:22.356Z,50.38
2023-05-02T11:46:25.232Z,49.81
2023-05-02T11:49:28.355Z,50.71
2023-05-02T11:52:41.489Z,51.60
2023-05-02T11:55:55.895Z,51.05
2023-05-02T11:59:03.621Z,51.27
2023-05-02T12:02:07.953Z,51.36
2023-05-02T12:05:12.654Z,51.72
2023-05-02T12:08:26.997Z,52.02
2023-05-02T12:11:30.905Z,53.45
2023-05-02T12:14:34.147Z,51.37
2023-05-02T12:17:41.642Z,51.13
2023-05-02T12:20:45.378Z,51.57
2023-05-02T12:23:48.174Z,50.96
2023-05-02T12:26:53.121Z,50.52
2023-05-02T12:29:57.801Z,49.88
2023-05-02T12:33:03.299Z,50.16
2023-05-02T12:36:09.958Z,50.04
2023-05-02T12:39:13.023Z,50.59
2023-05-02T12:42:18.531Z,49.48
2023-05-02T12:45:21.413Z,50.93
2023-05-02T12:48:28.331Z,51.50
2023-05-02T12:51:33.186Z,51.02
2023-05-02T12:54:36.229Z,50.63
2023-05-02T12:57:39.223Z,51.16
2023-05-02T13:00:44.813Z,50.48
2023-05-02T13:03:51.879Z,51.01
2023-05-02T13:06:55.190Z,50.85
2023-05-02T13:09:58.103Z,51.30
2023-05-02T13:13:01.490Z,51.83
2023-05-02T13:16:04.925Z,52.16
2023-05-02T13:19:08.698Z,52.56
2023-05-02T13:22:15.263Z,52.45
2023-05-02T13:25:18.335Z,52.58
2023-05-02T13:28:21.211Z,52.33
2023-05-02T13:31:24.171Z,54.36
2023-05-02T13:34:27.205Z,53.89
2023-05-02T13:37:30.223Z,53.06
2023-05-02T13:40:33.200Z,53.45
2023-05-02T13:43:36.053Z,53.34
2023-05-02T13:46:39.389Z,53.54
2023-05-02T13:49:42.534Z,53.09
2023-05-02T13:52:47.723Z,52.69
2023-05-02T13:55:52.015Z,53.18
2023-05-02T13:58:54.880Z,52.53
2023-05-02T14:01:57.891Z,53.65
2023-05-02T14:05:00.771Z,53.55
2023-05-02T14:08:04.640Z,54.14
2023-05-02T14:11:07.720Z,54.72
2023-05-02T14:14:12.813Z,54.53
2023-05-02T14:17:15.703Z,55.57
2023-05-02T14:20:18.676Z,56.46
2023-05-02T14:23:21.950Z,56.72
2023-05-02T14:26:24.929Z,57.14
2023-05-02T14:29:27.848Z,57.90
2023-05-02T14:32:30.930Z,57.64
2023-05-02T14:35:33.889Z,57.40
2023-05-02T14:38:37.070Z,58.10
2023-05-02T14:41:39.997Z,58.44
2023-05-02T14:44:42.912Z,58.18
2023-05-02T14:47:46.302Z,58.79
2023-05-02T14:50:49.342Z,58.91
2023-05-02T14:53:52.110Z,58.74
2023-05-02T14:56:54.899Z,58.27
2023-05-02T14:59:57.987Z,59.13
2023-05-02T15:03:02.541Z,59.28
2023-05-02T15:06:06.824Z,59.01
2023-05-02T15:09:09.873Z,60.34
2023-05-02T15:12:15.047Z,60.58
2023-05-02T15:15:20.765Z,60.69
2023-05-02T15:18:23.775Z,61.82
2023-05-02T15:21:27.305Z,61.26
2023-05-02T15:24:31.444Z,62.18
2023-05-02T15:27:34.452Z,62.89
2023-05-02T15:30:37.462Z,63.26
2023-05-02T15:33:40.894Z,64.10
2023-05-02T15:36:44.093Z,64.13
2023-05-02T15:39:47.449Z,64.65
2023-05-02T15:42:50.700Z,65.01
2023-05-02T15:45:54.514Z,64.91
2023-05-02T15:48:57.449Z,65.81
2023-05-02T15:52:01.221Z,65.60
2023-05-02T15:55:04.720Z,65.73
2023-05-02T15:58:07.636Z,65.74
2023-05-02T16:01:10.774Z,66.37
2023-05-02T16:04:13.784Z,66.39
2023-05-02T16:07:16.661Z,66.76
2023-05-02T16:10:19.600Z,67.31
2023-05-02T16:13:25.296Z,67.23
2023-05-02T16:16:28.496Z,67.43
2023-05-02T16:19:31.511Z,67.69
2023-05-02T16:22:34.511Z,68.03
2023-05-02T16:25:37.341Z,67.86
2023-05-02T16:28:40.690Z,68.08
2023-05-02T16:31:44.939Z,68.48
2023-05-02T16:34:48.580Z,68.54
2023-05-02T16:37:51.668Z,68.76
2023-05-02T16:40:54.471Z,68.82
2023-05-02T16:43:57.346Z,69.35
2023-05-02T16:47:00.533Z,69.78
2023-05-02T16:50:03.919Z,69.03
2023-05-02T16:53:07.113Z,68.91
2023-05-02T16:56:10.042Z,68.52
2023-05-02T16:59:12.871Z,67.52
2023-05-02T17:02:17.081Z,67.45
2023-05-02T17:05:21.064Z,67.07
2023-05-02T17:08:24.195Z,67.65
2023-05-02T17:11:27.296Z,67.64
2023-05-02T17:14:30.296Z,67.30
2023-05-02T17:17:33.414Z,67.78
2023-05-02T17:20:36.587Z,67.34
2023-05-02T17:23:40.031Z,67.27
2023-05-02T17:26:42.693Z,67.11
2023-05-02T17:29:46.273Z,66.84
2023-05-02T17:32:49.212Z,66.87
2023-05-02T17:35:52.917Z,66.46
2023-05-02T17:38:55.734Z,66.81
2023-05-02T17:41:58.673Z,65.91
2023-05-02T17:45:01.489Z,66.52
2023-05-02T17:48:04.480Z,65.86
2023-05-02T17:51:07.445Z,65.70
2023-05-02T17:54:10.203Z,65.83
2023-05-02T17:57:14.870Z,65.96
2023-05-02T18:00:19.200Z,65.55
2023-05-02T18:03:22.373Z,66.29
2023-05-02T18:06:25.582Z,65.88
2023-05-02T18:09:28.486Z,66.01
2023-05-02T18:12:32.658Z,65.42
2023-05-02T18:15:35.456Z,66.17
2023-05-02T18:18:38.924Z,65.71
2023-05-02T18:21:42.580Z,65.59
2023-05-02T18:24:45.450Z,64.97
2023-05-02T18:27:48.459Z,65.17
2023-05-02T18:30:51.303Z,64.77
2023-05-02T18:33:54.634Z,64.77
2023-05-02T18:36:59.976Z,64.37
2023-05-02T18:40:03.580Z,64.96
2023-05-02T18:43:06.609Z,65.35
2023-05-02T18:46:09.653Z,66.87
2023-05-02T18:49:12.761Z,68.50
2023-05-02T18:52:15.689Z,68.28
2023-05-02T18:55:19.228Z,72.58
2023-05-02T18:58:22.911Z,76.35
2023-05-02T19:01:26.479Z,77.20
2023-05-02T19:04:32.075Z,81.33
2023-05-02T19:07:36.279Z,82.18
2023-05-02T19:10:41.191Z,84.10
2023-05-02T19:13:43.955Z,84.56
2023-05-02T19:16:47.283Z,87.24
2023-05-02T19:19:51.289Z,88.24
2023-05-02T19:23:07.234Z,87.80
2023-05-02T19:26:18.193Z,91.02
2023-05-02T19:29:21.260Z,93.14
2023-05-02T19:32:25.556Z,94.93
2023-05-02T19:35:29.201Z,96.68
2023-05-02T19:38:32.162Z,97.24
2023-05-02T19:41:34.846Z,97.54
2023-05-02T19:44:38.010Z,98.32
2023-05-02T19:47:44.113Z,99.75
2023-05-02T19:50:47.155Z,99.75
2023-05-02T19:53:50.005Z,100.00
2023-05-02T19:56:52.790Z,100.00
2023-05-02T19:59:56.114Z,100.00
2023-05-02T20:02:58.909Z,100.00
2023-05-02T20:06:01.803Z,98.96
2023-05-02T20:09:04.654Z,97.93
2023-05-02T20:12:07.695Z,94.16
2023-05-02T20:15:11.873Z,93.23
2023-05-02T20:18:15.065Z,89.77
2023-05-02T20:21:17.870Z,92.79
2023-05-02T20:24:20.658Z,93.16
2023-05-02T20:27:23.712Z,93.40
2023-05-02T20:30:26.553Z,92.25
2023-05-02T20:33:43.761Z,93.60
2023-05-02T20:36:47.677Z,94.67
2023-05-02T20:39:50.671Z,96.73
2023-05-02T20:42:54.149Z,99.52
2023-05-02T20:45:57.051Z,100.00
2023-05-02T20:49:00.013Z,100.00
2023-05-02T20:52:06.196Z,100.00
2023-05-02T20:55:09.343Z,100.00
2023-05-02T20:58:13.306Z,100.00
2023-05-02T21:01:16.327Z,100.00
2023-05-02T21:04:19.543Z,100.00
2023-05-02T21:07:22.675Z,100.00
2023-05-02T21:10:28.027Z,100.00
2023-05-02T21:13:30.780Z,100.00
2023-05-02T21:16:33.597Z,100.00
2023-05-02T21:19:37.989Z,99.93
2023-05-02T21:22:42.242Z,99.65
2023-05-02T21:25:45.052Z,100.00
2023-05-02T21:28:47.690Z,99.23
2023-05-02T21:31:51.929Z,99.89
2023-05-02T21:34:55.998Z,95.30
2023-05-02T21:37:58.762Z,92.89
2023-05-02T21:41:03.373Z,90.90
2023-05-02T21:44:06.276Z,89.97
2023-05-02T21:47:09.461Z,90.84
2023-05-02T21:50:12.331Z,90.47
2023-05-02T21:53:15.140Z,90.26
2023-05-02T21:56:17.790Z,88.81
2023-05-02T21:59:20.453Z,89.19
2023-05-02T22:02:24.038Z,90.38
2023-05-02T22:05:26.804Z,89.95
2023-05-02T22:08:29.478Z,90.99
2023-05-02T22:11:32.458Z,93.60
2023-05-02T22:14:44.484Z,93.70
2023-05-02T22:17:48.703Z,93.23
2023-05-02T22:20:51.423Z,93.72
2023-05-02T22:23:56.838Z,92.71
2023-05-02T22:26:59.507Z,90.77
2023-05-02T22:30:02.706Z,91.98
2023-05-02T22:33:06.894Z,91.42
2023-05-02T22:36:09.634Z,90.70
2023-05-02T22:39:13.682Z,92.19
2023-05-02T22:42:16.390Z,91.29
2023-05-02T22:45:19.228Z,91.58
2023-05-02T22:48:22.037Z,91.01
2023-05-02T22:51:25.990Z,92.31
2023-05-02T22:54:28.745Z,92.47
2023-05-02T22:57:31.838Z,94.28
2023-05-02T23:00:34.479Z,93.07
2023-05-02T23:03:37.289Z,93.78
2023-05-02T23:06:40.034Z,94.93
2023-05-02T23:09:42.672Z,94.75
2023-05-02T23:12:45.309Z,96.78
2023-05-02T23:15:55.645Z,96.81
2023-05-02T23:18:58.457Z,97.83
2023-05-02T23:22:03.183Z,98.61
2023-05-02T23:25:07.398Z,98.42
2023-05-02T23:28:10.191Z,99.12
2023-05-02T23:31:13.151Z,98.43
2023-05-02T23:34:16.158Z,99.76
2023-05-02T23:37:18.944Z,100.00
2023-05-02T23:40:21.712Z,100.00
2023-05-02T23:43:24.559Z,100.00
2023-05-02T23:46:27.587Z,100.00
2023-05-02T23:49:30.476Z,100.00
2023-05-02T23:52:33.752Z,100.00
2023-05-02T23:55:36.713Z,100.00
2023-05-02T23:58:39.469Z,100.00
